sensor_id;sensor_type;location;lat;lon;timestamp;temperature;humidity
20081;DHT22;10200;49.232;9.222;2022-12-07T00:01:31;5.20;99.90
20081;DHT22;10200;49.232;9.222;2022-12-07T00:04:00;5.20;99.90
20081;DHT22;10200;49.232;9.222;2022-12-07T00:06:40;5.10;99.90
20081;DHT22;10200;49.232;9.222;2022-12-07T00:09:09;5.10;99.90
20081;DHT22;10200;49.232;9.222;2022-12-07T00:11:36;5.10;99.90
20081;DHT22;10200;49.232;9.222;2022-12-07T00:14:06;5.10;99.90
20081;DHT22;10200;49.232;9.222;2022-12-07T00:16:32;5.10;99.90
20081;DHT22;10200;49.232;9.222;2022-12-07T00:18:59;5.10;99.90
20081;DHT22;10200;49.232;9.222;2022-12-07T00:21:27;5.10;99.90
20081;DHT22;10200;49.232;9.222;2022-12-07T00:23:54;5.00;99.90
20081;DHT22;10200;49.232;9.222;2022-12-07T00:26:25;5.00;99.90
20081;DHT22;10200;49.232;9.222;2022-12-07T00:28:57;4.90;99.90
20081;DHT22;10200;49.232;9.222;2022-12-07T00:31:28;4.90;99.90
20081;DHT22;10200;49.232;9.222;2022-12-07T00:33:54;4.90;99.90
20081;DHT22;10200;49.232;9.222;2022-12-07T00:36:22;4.90;99.90
20081;DHT22;10200;49.232;9.222;2022-12-07T00:38:48;4.80;99.90
20081;DHT22;10200;49.232;9.222;2022-12-07T00:41:16;4.80;99.90
20081;DHT22;10200;49.232;9.222;2022-12-07T00:43:44;4.70;99.90
20081;DHT22;10200;49.232;9.222;2022-12-07T00:46:10;4.80;99.90
20081;DHT22;10200;49.232;9.222;2022-12-07T00:48:37;4.80;99.90
20081;DHT22;10200;49.232;9.222;2022-12-07T00:51:03;4.80;99.90
20081;DHT22;10200;49.232;9.222;2022-12-07T00:53:30;4.80;99.90
20081;DHT22;10200;49.232;9.222;2022-12-07T00:55:56;4.70;99.90
20081;DHT22;10200;49.232;9.222;2022-12-07T00:58:22;4.70;99.90
20081;DHT22;10200;49.232;9.222;2022-12-07T01:00:48;4.70;99.90
20081;DHT22;10200;49.232;9.222;2022-12-07T01:03:15;4.70;99.90
20081;DHT22;10200;49.232;9.222;2022-12-07T01:05:50;4.70;99.90
20081;DHT22;10200;49.232;9.222;2022-12-07T01:08:16;4.60;99.90
20081;DHT22;10200;49.232;9.222;2022-12-07T01:10:41;4.60;99.90
20081;DHT22;10200;49.232;9.222;2022-12-07T01:13:07;4.50;99.90
20081;DHT22;10200;49.232;9.222;2022-12-07T01:15:32;4.50;99.90
20081;DHT22;10200;49.232;9.222;2022-12-07T01:17:58;4.40;99.90
20081;DHT22;10200;49.232;9.222;2022-12-07T01:20:23;4.50;99.90
20081;DHT22;10200;49.232;9.222;2022-12-07T01:22:49;4.50;99.90
20081;DHT22;10200;49.232;9.222;2022-12-07T01:25:14;4.50;99.90
20081;DHT22;10200;49.232;9.222;2022-12-07T01:27:40;4.40;99.90
20081;DHT22;10200;49.232;9.222;2022-12-07T01:30:06;4.40;99.90
20081;DHT22;10200;49.232;9.222;2022-12-07T01:32:33;4.50;99.90
20081;DHT22;10200;49.232;9.222;2022-12-07T01:34:58;4.50;99.90
20081;DHT22;10200;49.232;9.222;2022-12-07T01:37:24;4.40;99.90
20081;DHT22;10200;49.232;9.222;2022-12-07T01:39:51;4.40;99.90
20081;DHT22;10200;49.232;9.222;2022-12-07T01:42:17;4.40;99.90
20081;DHT22;10200;49.232;9.222;2022-12-07T01:47:52;4.50;99.90
20081;DHT22;10200;49.232;9.222;2022-12-07T01:50:19;4.50;99.90
20081;DHT22;10200;49.232;9.222;2022-12-07T01:52:48;4.50;99.90
20081;DHT22;10200;49.232;9.222;2022-12-07T01:55:15;4.50;99.90
20081;DHT22;10200;49.232;9.222;2022-12-07T01:57:45;4.50;99.90
20081;DHT22;10200;49.232;9.222;2022-12-07T02:00:12;4.50;99.90
20081;DHT22;10200;49.232;9.222;2022-12-07T02:02:52;4.40;99.90
20081;DHT22;10200;49.232;9.222;2022-12-07T02:05:19;4.40;99.90
20081;DHT22;10200;49.232;9.222;2022-12-07T02:07:47;4.40;99.90
20081;DHT22;10200;49.232;9.222;2022-12-07T02:10:20;4.40;99.90
20081;DHT22;10200;49.232;9.222;2022-12-07T02:12:49;4.50;99.90
20081;DHT22;10200;49.232;9.222;2022-12-07T02:15:15;4.50;99.90
20081;DHT22;10200;49.232;9.222;2022-12-07T02:17:52;4.50;99.90
20081;DHT22;10200;49.232;9.222;2022-12-07T02:23:21;4.60;99.90
20081;DHT22;10200;49.232;9.222;2022-12-07T02:31:47;4.60;99.90
20081;DHT22;10200;49.232;9.222;2022-12-07T02:34:20;4.70;99.90
20081;DHT22;10200;49.232;9.222;2022-12-07T02:36:53;4.60;99.90
20081;DHT22;10200;49.232;9.222;2022-12-07T02:39:44;4.60;99.90
20081;DHT22;10200;49.232;9.222;2022-12-07T02:42:17;4.70;99.90
20081;DHT22;10200;49.232;9.222;2022-12-07T02:44:44;4.60;99.90
20081;DHT22;10200;49.232;9.222;2022-12-07T02:47:13;4.60;99.90
20081;DHT22;10200;49.232;9.222;2022-12-07T02:49:40;4.60;99.90
20081;DHT22;10200;49.232;9.222;2022-12-07T02:52:05;4.60;99.90
20081;DHT22;10200;49.232;9.222;2022-12-07T02:54:31;4.50;99.90
20081;DHT22;10200;49.232;9.222;2022-12-07T02:57:09;4.50;99.90
20081;DHT22;10200;49.232;9.222;2022-12-07T03:07:51;4.60;99.90
20081;DHT22;10200;49.232;9.222;2022-12-07T03:10:59;4.60;99.90
20081;DHT22;10200;49.232;9.222;2022-12-07T03:16:06;4.60;99.90
20081;DHT22;10200;49.232;9.222;2022-12-07T03:19:19;4.70;99.90
20081;DHT22;10200;49.232;9.222;2022-12-07T03:21:27;4.70;99.90
20081;DHT22;10200;49.232;9.222;2022-12-07T03:23:57;4.80;99.90
20081;DHT22;10200;49.232;9.222;2022-12-07T03:26:31;4.80;99.90
20081;DHT22;10200;49.232;9.222;2022-12-07T03:29:01;4.80;99.90
20081;DHT22;10200;49.232;9.222;2022-12-07T03:31:33;4.80;99.90
20081;DHT22;10200;49.232;9.222;2022-12-07T03:34:18;4.90;99.90
20081;DHT22;10200;49.232;9.222;2022-12-07T03:36:50;4.90;99.90
20081;DHT22;10200;49.232;9.222;2022-12-07T03:39:33;4.80;99.90
20081;DHT22;10200;49.232;9.222;2022-12-07T03:42:03;4.80;99.90
20081;DHT22;10200;49.232;9.222;2022-12-07T03:44:29;4.80;99.90
20081;DHT22;10200;49.232;9.222;2022-12-07T03:50:04;4.80;99.90
20081;DHT22;10200;49.232;9.222;2022-12-07T03:52:42;4.90;99.90
20081;DHT22;10200;49.232;9.222;2022-12-07T03:55:15;4.90;99.90
20081;DHT22;10200;49.232;9.222;2022-12-07T03:57:43;4.90;99.90
20081;DHT22;10200;49.232;9.222;2022-12-07T04:00:11;4.90;99.90
20081;DHT22;10200;49.232;9.222;2022-12-07T04:02:37;5.00;99.90
20081;DHT22;10200;49.232;9.222;2022-12-07T04:05:03;5.00;99.90
20081;DHT22;10200;49.232;9.222;2022-12-07T04:07:29;4.90;99.90
20081;DHT22;10200;49.232;9.222;2022-12-07T04:09:55;5.00;99.90
20081;DHT22;10200;49.232;9.222;2022-12-07T04:12:21;4.90;99.90
20081;DHT22;10200;49.232;9.222;2022-12-07T04:14:47;5.00;99.90
20081;DHT22;10200;49.232;9.222;2022-12-07T04:17:12;5.00;99.90
20081;DHT22;10200;49.232;9.222;2022-12-07T04:19:38;4.90;99.90
20081;DHT22;10200;49.232;9.222;2022-12-07T04:22:04;5.00;99.90
20081;DHT22;10200;49.232;9.222;2022-12-07T04:24:30;5.00;99.90
20081;DHT22;10200;49.232;9.222;2022-12-07T04:26:56;5.00;99.90
20081;DHT22;10200;49.232;9.222;2022-12-07T04:29:22;5.00;99.90
20081;DHT22;10200;49.232;9.222;2022-12-07T04:31:48;4.90;99.90
20081;DHT22;10200;49.232;9.222;2022-12-07T04:34:14;4.90;99.90
20081;DHT22;10200;49.232;9.222;2022-12-07T04:36:41;4.90;99.90
20081;DHT22;10200;49.232;9.222;2022-12-07T04:39:17;4.90;99.90
20081;DHT22;10200;49.232;9.222;2022-12-07T04:41:44;4.90;99.90
20081;DHT22;10200;49.232;9.222;2022-12-07T04:44:09;4.90;99.90
20081;DHT22;10200;49.232;9.222;2022-12-07T04:46:36;4.80;99.90
20081;DHT22;10200;49.232;9.222;2022-12-07T04:49:02;4.80;99.90
20081;DHT22;10200;49.232;9.222;2022-12-07T04:51:29;4.90;99.90
20081;DHT22;10200;49.232;9.222;2022-12-07T04:53:55;4.90;99.90
20081;DHT22;10200;49.232;9.222;2022-12-07T04:56:22;4.90;99.90
20081;DHT22;10200;49.232;9.222;2022-12-07T04:58:48;4.90;99.90
20081;DHT22;10200;49.232;9.222;2022-12-07T05:01:15;4.90;99.90
20081;DHT22;10200;49.232;9.222;2022-12-07T05:03:41;4.80;99.90
20081;DHT22;10200;49.232;9.222;2022-12-07T05:06:07;4.80;99.90
20081;DHT22;10200;49.232;9.222;2022-12-07T05:08:34;4.80;99.90
20081;DHT22;10200;49.232;9.222;2022-12-07T05:11:00;4.80;99.90
20081;DHT22;10200;49.232;9.222;2022-12-07T05:13:26;4.80;99.90
20081;DHT22;10200;49.232;9.222;2022-12-07T05:15:52;4.80;99.90
20081;DHT22;10200;49.232;9.222;2022-12-07T05:18:17;4.80;99.90
20081;DHT22;10200;49.232;9.222;2022-12-07T05:20:43;4.80;99.90
20081;DHT22;10200;49.232;9.222;2022-12-07T05:23:09;4.80;99.90
20081;DHT22;10200;49.232;9.222;2022-12-07T05:25:35;4.80;99.90
20081;DHT22;10200;49.232;9.222;2022-12-07T05:28:01;4.80;99.90
20081;DHT22;10200;49.232;9.222;2022-12-07T05:30:27;4.80;99.90
20081;DHT22;10200;49.232;9.222;2022-12-07T05:32:53;4.80;99.90
20081;DHT22;10200;49.232;9.222;2022-12-07T05:35:19;4.80;99.90
20081;DHT22;10200;49.232;9.222;2022-12-07T05:37:44;4.80;99.90
20081;DHT22;10200;49.232;9.222;2022-12-07T05:40:11;4.90;99.90
20081;DHT22;10200;49.232;9.222;2022-12-07T05:42:37;4.90;99.90
20081;DHT22;10200;49.232;9.222;2022-12-07T05:45:03;4.90;99.90
20081;DHT22;10200;49.232;9.222;2022-12-07T05:47:29;4.90;99.90
20081;DHT22;10200;49.232;9.222;2022-12-07T05:49:54;4.90;99.90
20081;DHT22;10200;49.232;9.222;2022-12-07T05:52:20;4.90;99.90
20081;DHT22;10200;49.232;9.222;2022-12-07T05:54:45;4.90;99.90
20081;DHT22;10200;49.232;9.222;2022-12-07T05:57:11;4.80;99.90
20081;DHT22;10200;49.232;9.222;2022-12-07T05:59:37;4.90;99.90
20081;DHT22;10200;49.232;9.222;2022-12-07T06:02:08;4.90;99.90
20081;DHT22;10200;49.232;9.222;2022-12-07T06:04:37;4.90;99.90
20081;DHT22;10200;49.232;9.222;2022-12-07T06:07:03;4.90;99.90
20081;DHT22;10200;49.232;9.222;2022-12-07T06:09:29;4.90;99.90
20081;DHT22;10200;49.232;9.222;2022-12-07T06:11:56;4.90;99.90
20081;DHT22;10200;49.232;9.222;2022-12-07T06:14:40;5.00;99.90
20081;DHT22;10200;49.232;9.222;2022-12-07T06:17:06;4.90;99.90
20081;DHT22;10200;49.232;9.222;2022-12-07T06:19:32;5.00;99.90
20081;DHT22;10200;49.232;9.222;2022-12-07T06:21:58;5.00;99.90
20081;DHT22;10200;49.232;9.222;2022-12-07T06:24:24;5.00;99.90
20081;DHT22;10200;49.232;9.222;2022-12-07T06:26:50;5.00;99.90
20081;DHT22;10200;49.232;9.222;2022-12-07T06:29:17;4.90;99.90
20081;DHT22;10200;49.232;9.222;2022-12-07T06:31:42;4.90;99.90
20081;DHT22;10200;49.232;9.222;2022-12-07T06:34:16;4.90;99.90
20081;DHT22;10200;49.232;9.222;2022-12-07T06:36:43;5.00;99.90
20081;DHT22;10200;49.232;9.222;2022-12-07T06:39:09;5.00;99.90
20081;DHT22;10200;49.232;9.222;2022-12-07T06:41:38;4.90;99.90
20081;DHT22;10200;49.232;9.222;2022-12-07T06:44:07;5.00;99.90
20081;DHT22;10200;49.232;9.222;2022-12-07T06:46:33;4.90;99.90
20081;DHT22;10200;49.232;9.222;2022-12-07T06:49:00;5.00;99.90
20081;DHT22;10200;49.232;9.222;2022-12-07T06:51:26;4.90;99.90
20081;DHT22;10200;49.232;9.222;2022-12-07T06:53:51;4.90;99.90
20081;DHT22;10200;49.232;9.222;2022-12-07T06:56:17;4.90;99.90
20081;DHT22;10200;49.232;9.222;2022-12-07T06:58:42;4.90;99.90
20081;DHT22;10200;49.232;9.222;2022-12-07T07:01:10;4.80;99.90
20081;DHT22;10200;49.232;9.222;2022-12-07T07:03:36;4.80;99.90
20081;DHT22;10200;49.232;9.222;2022-12-07T07:06:01;4.80;99.90
20081;DHT22;10200;49.232;9.222;2022-12-07T07:08:27;4.80;99.90
20081;DHT22;10200;49.232;9.222;2022-12-07T07:10:52;4.80;99.90
20081;DHT22;10200;49.232;9.222;2022-12-07T07:13:18;4.80;99.90
20081;DHT22;10200;49.232;9.222;2022-12-07T07:15:43;4.80;99.90
20081;DHT22;10200;49.232;9.222;2022-12-07T07:18:09;4.80;99.90
20081;DHT22;10200;49.232;9.222;2022-12-07T07:20:37;4.80;99.90
20081;DHT22;10200;49.232;9.222;2022-12-07T07:23:02;4.80;99.90
20081;DHT22;10200;49.232;9.222;2022-12-07T07:25:28;4.80;99.90
20081;DHT22;10200;49.232;9.222;2022-12-07T07:27:53;4.80;99.90
20081;DHT22;10200;49.232;9.222;2022-12-07T07:30:19;4.80;99.90
20081;DHT22;10200;49.232;9.222;2022-12-07T07:32:45;4.80;99.90
20081;DHT22;10200;49.232;9.222;2022-12-07T07:35:10;4.80;99.90
20081;DHT22;10200;49.232;9.222;2022-12-07T07:37:36;4.70;99.90
20081;DHT22;10200;49.232;9.222;2022-12-07T07:40:02;4.80;99.90
20081;DHT22;10200;49.232;9.222;2022-12-07T07:42:27;4.80;99.90
20081;DHT22;10200;49.232;9.222;2022-12-07T07:44:53;4.80;99.90
20081;DHT22;10200;49.232;9.222;2022-12-07T07:47:18;4.90;99.90
20081;DHT22;10200;49.232;9.222;2022-12-07T07:49:44;4.90;99.90
20081;DHT22;10200;49.232;9.222;2022-12-07T07:52:10;4.90;99.90
20081;DHT22;10200;49.232;9.222;2022-12-07T07:54:35;5.00;99.90
20081;DHT22;10200;49.232;9.222;2022-12-07T07:57:01;5.00;99.90
20081;DHT22;10200;49.232;9.222;2022-12-07T07:59:26;5.00;99.90
20081;DHT22;10200;49.232;9.222;2022-12-07T08:01:52;5.00;99.90
20081;DHT22;10200;49.232;9.222;2022-12-07T08:04:17;5.00;99.90
20081;DHT22;10200;49.232;9.222;2022-12-07T08:06:43;5.10;99.90
20081;DHT22;10200;49.232;9.222;2022-12-07T08:09:08;5.10;99.90
20081;DHT22;10200;49.232;9.222;2022-12-07T08:11:34;5.20;99.90
20081;DHT22;10200;49.232;9.222;2022-12-07T08:14:01;5.20;99.90
20081;DHT22;10200;49.232;9.222;2022-12-07T08:16:27;5.10;99.90
20081;DHT22;10200;49.232;9.222;2022-12-07T08:18:52;5.10;99.90
20081;DHT22;10200;49.232;9.222;2022-12-07T08:21:18;5.10;99.90
20081;DHT22;10200;49.232;9.222;2022-12-07T08:23:43;5.10;99.90
20081;DHT22;10200;49.232;9.222;2022-12-07T08:26:14;5.10;99.90
20081;DHT22;10200;49.232;9.222;2022-12-07T08:28:40;5.20;99.90
20081;DHT22;10200;49.232;9.222;2022-12-07T08:31:10;5.20;99.90
20081;DHT22;10200;49.232;9.222;2022-12-07T08:33:36;5.20;99.90
20081;DHT22;10200;49.232;9.222;2022-12-07T08:36:09;5.10;99.90
20081;DHT22;10200;49.232;9.222;2022-12-07T08:38:36;5.10;99.90
20081;DHT22;10200;49.232;9.222;2022-12-07T08:41:02;5.10;99.90
20081;DHT22;10200;49.232;9.222;2022-12-07T08:43:28;5.20;99.90
20081;DHT22;10200;49.232;9.222;2022-12-07T08:46:02;5.10;99.90
20081;DHT22;10200;49.232;9.222;2022-12-07T08:48:30;5.10;99.90
20081;DHT22;10200;49.232;9.222;2022-12-07T08:50:56;5.10;99.90
20081;DHT22;10200;49.232;9.222;2022-12-07T08:53:21;5.10;99.90
20081;DHT22;10200;49.232;9.222;2022-12-07T08:55:48;5.10;99.90
20081;DHT22;10200;49.232;9.222;2022-12-07T08:58:14;5.10;99.90
20081;DHT22;10200;49.232;9.222;2022-12-07T09:00:39;5.10;99.90
20081;DHT22;10200;49.232;9.222;2022-12-07T09:03:05;5.10;99.90
20081;DHT22;10200;49.232;9.222;2022-12-07T09:05:32;5.20;99.90
20081;DHT22;10200;49.232;9.222;2022-12-07T09:08:00;5.20;99.90
20081;DHT22;10200;49.232;9.222;2022-12-07T09:10:26;5.20;99.90
20081;DHT22;10200;49.232;9.222;2022-12-07T09:12:52;5.20;99.90
20081;DHT22;10200;49.232;9.222;2022-12-07T09:15:18;5.30;99.90
20081;DHT22;10200;49.232;9.222;2022-12-07T09:17:43;5.40;99.90
20081;DHT22;10200;49.232;9.222;2022-12-07T09:20:09;5.40;99.90
20081;DHT22;10200;49.232;9.222;2022-12-07T09:22:35;5.30;99.90
20081;DHT22;10200;49.232;9.222;2022-12-07T09:25:01;5.40;99.90
20081;DHT22;10200;49.232;9.222;2022-12-07T09:27:27;5.30;99.90
20081;DHT22;10200;49.232;9.222;2022-12-07T09:29:53;5.40;99.90
20081;DHT22;10200;49.232;9.222;2022-12-07T09:32:18;5.40;99.90
20081;DHT22;10200;49.232;9.222;2022-12-07T09:34:44;5.50;99.90
20081;DHT22;10200;49.232;9.222;2022-12-07T09:37:09;5.50;99.90
20081;DHT22;10200;49.232;9.222;2022-12-07T09:39:39;5.60;99.90
20081;DHT22;10200;49.232;9.222;2022-12-07T09:42:06;5.60;99.90
20081;DHT22;10200;49.232;9.222;2022-12-07T09:44:33;5.70;99.90
20081;DHT22;10200;49.232;9.222;2022-12-07T09:46:59;5.70;99.90
20081;DHT22;10200;49.232;9.222;2022-12-07T09:49:27;5.70;99.90
20081;DHT22;10200;49.232;9.222;2022-12-07T09:52:26;5.70;99.90
20081;DHT22;10200;49.232;9.222;2022-12-07T09:54:52;5.70;99.90
20081;DHT22;10200;49.232;9.222;2022-12-07T09:57:25;5.70;99.90
20081;DHT22;10200;49.232;9.222;2022-12-07T09:59:53;5.80;99.90
20081;DHT22;10200;49.232;9.222;2022-12-07T10:02:28;5.80;99.90
20081;DHT22;10200;49.232;9.222;2022-12-07T10:04:59;5.80;99.90
20081;DHT22;10200;49.232;9.222;2022-12-07T10:07:24;5.90;99.90
20081;DHT22;10200;49.232;9.222;2022-12-07T10:09:50;5.90;99.90
20081;DHT22;10200;49.232;9.222;2022-12-07T10:12:15;5.90;99.90
20081;DHT22;10200;49.232;9.222;2022-12-07T10:14:59;6.00;99.90
20081;DHT22;10200;49.232;9.222;2022-12-07T10:22:36;6.00;99.90
20081;DHT22;10200;49.232;9.222;2022-12-07T10:25:09;6.00;99.90
20081;DHT22;10200;49.232;9.222;2022-12-07T10:27:42;6.10;99.90
20081;DHT22;10200;49.232;9.222;2022-12-07T10:30:12;6.10;99.90
20081;DHT22;10200;49.232;9.222;2022-12-07T10:32:39;6.20;99.90
20081;DHT22;10200;49.232;9.222;2022-12-07T10:35:29;6.20;99.90
20081;DHT22;10200;49.232;9.222;2022-12-07T10:37:58;6.20;99.90
20081;DHT22;10200;49.232;9.222;2022-12-07T10:40:33;6.20;99.90
20081;DHT22;10200;49.232;9.222;2022-12-07T10:43:04;6.10;99.90
20081;DHT22;10200;49.232;9.222;2022-12-07T10:45:30;6.20;99.90
20081;DHT22;10200;49.232;9.222;2022-12-07T10:48:18;6.10;99.90
20081;DHT22;10200;49.232;9.222;2022-12-07T10:53:53;6.20;99.90
20081;DHT22;10200;49.232;9.222;2022-12-07T10:56:29;6.20;99.90
20081;DHT22;10200;49.232;9.222;2022-12-07T11:02:02;6.20;99.90
20081;DHT22;10200;49.232;9.222;2022-12-07T11:09:47;6.30;99.90
20081;DHT22;10200;49.232;9.222;2022-12-07T11:25:58;6.30;99.90
20081;DHT22;10200;49.232;9.222;2022-12-07T11:37:09;6.40;99.90
20081;DHT22;10200;49.232;9.222;2022-12-07T11:40:03;6.50;99.90
20081;DHT22;10200;49.232;9.222;2022-12-07T11:42:36;6.40;99.90
20081;DHT22;10200;49.232;9.222;2022-12-07T11:45:48;6.40;99.90
20081;DHT22;10200;49.232;9.222;2022-12-07T11:50:43;6.40;99.90
20081;DHT22;10200;49.232;9.222;2022-12-07T11:53:17;6.30;99.90
20081;DHT22;10200;49.232;9.222;2022-12-07T12:06:57;6.30;99.90
20081;DHT22;10200;49.232;9.222;2022-12-07T12:09:29;6.30;99.90
20081;DHT22;10200;49.232;9.222;2022-12-07T12:20:15;6.40;99.90
20081;DHT22;10200;49.232;9.222;2022-12-07T12:22:49;6.40;99.90
20081;DHT22;10200;49.232;9.222;2022-12-07T12:27:48;6.40;99.90
20081;DHT22;10200;49.232;9.222;2022-12-07T12:30:26;6.30;99.90
20081;DHT22;10200;49.232;9.222;2022-12-07T12:33:06;6.30;99.90
20081;DHT22;10200;49.232;9.222;2022-12-07T12:35:33;6.30;99.90
20081;DHT22;10200;49.232;9.222;2022-12-07T12:38:29;6.30;99.90
20081;DHT22;10200;49.232;9.222;2022-12-07T12:40:56;6.30;99.90
20081;DHT22;10200;49.232;9.222;2022-12-07T12:43:46;6.30;99.90
20081;DHT22;10200;49.232;9.222;2022-12-07T12:56:58;6.40;99.90
20081;DHT22;10200;49.232;9.222;2022-12-07T13:00:19;6.40;99.90
20081;DHT22;10200;49.232;9.222;2022-12-07T13:02:27;6.50;99.90
20081;DHT22;10200;49.232;9.222;2022-12-07T13:15:38;6.40;99.90
20081;DHT22;10200;49.232;9.222;2022-12-07T13:20:58;6.40;99.90
20081;DHT22;10200;49.232;9.222;2022-12-07T13:29:19;6.40;99.90
20081;DHT22;10200;49.232;9.222;2022-12-07T13:31:52;6.40;99.90
20081;DHT22;10200;49.232;9.222;2022-12-07T13:34:37;6.40;99.90
20081;DHT22;10200;49.232;9.222;2022-12-07T13:37:19;6.30;99.90
20081;DHT22;10200;49.232;9.222;2022-12-07T13:39:55;6.30;99.90
20081;DHT22;10200;49.232;9.222;2022-12-07T13:44:52;6.40;99.90
20081;DHT22;10200;49.232;9.222;2022-12-07T13:47:43;6.40;99.90
20081;DHT22;10200;49.232;9.222;2022-12-07T13:50:36;6.40;99.90
20081;DHT22;10200;49.232;9.222;2022-12-07T13:53:07;6.50;99.90
20081;DHT22;10200;49.232;9.222;2022-12-07T13:55:44;6.50;99.90
20081;DHT22;10200;49.232;9.222;2022-12-07T13:58:10;6.50;99.90
20081;DHT22;10200;49.232;9.222;2022-12-07T14:00:36;6.50;99.90
20081;DHT22;10200;49.232;9.222;2022-12-07T14:05:37;6.40;99.90
20081;DHT22;10200;49.232;9.222;2022-12-07T14:08:04;6.40;99.90
20081;DHT22;10200;49.232;9.222;2022-12-07T14:12:57;6.40;99.90
20081;DHT22;10200;49.232;9.222;2022-12-07T14:15:28;6.40;99.90
20081;DHT22;10200;49.232;9.222;2022-12-07T14:17:55;6.40;99.90
20081;DHT22;10200;49.232;9.222;2022-12-07T14:20:34;6.40;99.90
20081;DHT22;10200;49.232;9.222;2022-12-07T14:23:00;6.40;99.90
20081;DHT22;10200;49.232;9.222;2022-12-07T14:25:48;6.40;99.90
20081;DHT22;10200;49.232;9.222;2022-12-07T14:28:30;6.30;99.90
20081;DHT22;10200;49.232;9.222;2022-12-07T14:30:56;6.30;99.90
20081;DHT22;10200;49.232;9.222;2022-12-07T14:33:22;6.30;99.90
20081;DHT22;10200;49.232;9.222;2022-12-07T14:35:49;6.20;99.90
20081;DHT22;10200;49.232;9.222;2022-12-07T14:38:14;6.20;99.90
20081;DHT22;10200;49.232;9.222;2022-12-07T14:40:40;6.20;99.90
20081;DHT22;10200;49.232;9.222;2022-12-07T14:43:11;6.20;99.90
20081;DHT22;10200;49.232;9.222;2022-12-07T14:45:37;6.10;99.90
20081;DHT22;10200;49.232;9.222;2022-12-07T14:48:10;6.10;99.90
20081;DHT22;10200;49.232;9.222;2022-12-07T14:50:40;6.10;99.90
20081;DHT22;10200;49.232;9.222;2022-12-07T14:53:15;6.00;99.90
20081;DHT22;10200;49.232;9.222;2022-12-07T14:55:41;6.10;99.90
20081;DHT22;10200;49.232;9.222;2022-12-07T14:58:13;6.10;99.90
20081;DHT22;10200;49.232;9.222;2022-12-07T15:00:40;6.10;99.90
20081;DHT22;10200;49.232;9.222;2022-12-07T15:03:05;6.10;99.90
20081;DHT22;10200;49.232;9.222;2022-12-07T15:05:31;6.10;99.90
20081;DHT22;10200;49.232;9.222;2022-12-07T15:07:56;6.10;99.90
20081;DHT22;10200;49.232;9.222;2022-12-07T15:10:25;6.10;99.90
20081;DHT22;10200;49.232;9.222;2022-12-07T15:13:04;6.00;99.90
20081;DHT22;10200;49.232;9.222;2022-12-07T15:15:50;6.00;99.90
20081;DHT22;10200;49.232;9.222;2022-12-07T15:18:16;6.10;99.90
20081;DHT22;10200;49.232;9.222;2022-12-07T15:20:42;6.10;99.90
20081;DHT22;10200;49.232;9.222;2022-12-07T15:23:09;6.10;99.90
20081;DHT22;10200;49.232;9.222;2022-12-07T15:25:35;6.00;99.90
20081;DHT22;10200;49.232;9.222;2022-12-07T15:28:01;6.00;99.90
20081;DHT22;10200;49.232;9.222;2022-12-07T15:30:26;6.00;99.90
20081;DHT22;10200;49.232;9.222;2022-12-07T15:32:52;6.00;99.90
20081;DHT22;10200;49.232;9.222;2022-12-07T15:35:19;6.00;99.90
20081;DHT22;10200;49.232;9.222;2022-12-07T15:37:45;6.00;99.90
20081;DHT22;10200;49.232;9.222;2022-12-07T15:40:11;5.90;99.90
20081;DHT22;10200;49.232;9.222;2022-12-07T15:42:37;5.90;99.90
20081;DHT22;10200;49.232;9.222;2022-12-07T15:45:04;5.90;99.90
20081;DHT22;10200;49.232;9.222;2022-12-07T15:47:34;5.90;99.90
20081;DHT22;10200;49.232;9.222;2022-12-07T15:50:03;5.90;99.90
20081;DHT22;10200;49.232;9.222;2022-12-07T15:52:29;5.90;99.90
20081;DHT22;10200;49.232;9.222;2022-12-07T15:54:55;5.90;99.90
20081;DHT22;10200;49.232;9.222;2022-12-07T15:57:20;5.90;99.90
20081;DHT22;10200;49.232;9.222;2022-12-07T15:59:46;5.90;99.90
20081;DHT22;10200;49.232;9.222;2022-12-07T16:02:13;5.80;99.90
20081;DHT22;10200;49.232;9.222;2022-12-07T16:04:38;5.80;99.90
20081;DHT22;10200;49.232;9.222;2022-12-07T16:07:04;5.80;99.90
20081;DHT22;10200;49.232;9.222;2022-12-07T16:09:30;5.80;99.90
20081;DHT22;10200;49.232;9.222;2022-12-07T16:11:55;5.80;99.90
20081;DHT22;10200;49.232;9.222;2022-12-07T16:14:21;5.80;99.90
20081;DHT22;10200;49.232;9.222;2022-12-07T16:16:47;5.80;99.90
20081;DHT22;10200;49.232;9.222;2022-12-07T16:19:13;5.70;99.90
20081;DHT22;10200;49.232;9.222;2022-12-07T16:21:39;5.80;99.90
20081;DHT22;10200;49.232;9.222;2022-12-07T16:24:05;5.80;99.90
20081;DHT22;10200;49.232;9.222;2022-12-07T16:26:31;5.70;99.90
20081;DHT22;10200;49.232;9.222;2022-12-07T16:28:56;5.80;99.90
20081;DHT22;10200;49.232;9.222;2022-12-07T16:31:24;5.70;99.90
20081;DHT22;10200;49.232;9.222;2022-12-07T16:33:53;5.70;99.90
20081;DHT22;10200;49.232;9.222;2022-12-07T16:36:19;5.70;99.90
20081;DHT22;10200;49.232;9.222;2022-12-07T16:38:47;5.70;99.90
20081;DHT22;10200;49.232;9.222;2022-12-07T16:41:12;5.60;99.90
20081;DHT22;10200;49.232;9.222;2022-12-07T16:43:38;5.70;99.90
20081;DHT22;10200;49.232;9.222;2022-12-07T16:46:04;5.60;99.90
20081;DHT22;10200;49.232;9.222;2022-12-07T16:48:30;5.60;99.90
20081;DHT22;10200;49.232;9.222;2022-12-07T16:50:56;5.60;99.90
20081;DHT22;10200;49.232;9.222;2022-12-07T16:53:23;5.60;99.90
20081;DHT22;10200;49.232;9.222;2022-12-07T16:55:50;5.60;99.90
20081;DHT22;10200;49.232;9.222;2022-12-07T16:58:16;5.60;99.90
20081;DHT22;10200;49.232;9.222;2022-12-07T17:00:42;5.50;99.90
20081;DHT22;10200;49.232;9.222;2022-12-07T17:03:08;5.50;99.90
20081;DHT22;10200;49.232;9.222;2022-12-07T17:05:40;5.50;99.90
20081;DHT22;10200;49.232;9.222;2022-12-07T17:08:07;5.50;99.90
20081;DHT22;10200;49.232;9.222;2022-12-07T17:10:35;5.50;99.90
20081;DHT22;10200;49.232;9.222;2022-12-07T17:13:02;5.50;99.90
20081;DHT22;10200;49.232;9.222;2022-12-07T17:15:28;5.40;99.90
20081;DHT22;10200;49.232;9.222;2022-12-07T17:17:55;5.40;99.90
20081;DHT22;10200;49.232;9.222;2022-12-07T17:20:22;5.40;99.90
20081;DHT22;10200;49.232;9.222;2022-12-07T17:22:48;5.40;99.90
20081;DHT22;10200;49.232;9.222;2022-12-07T17:25:15;5.40;99.90
20081;DHT22;10200;49.232;9.222;2022-12-07T17:27:41;5.40;99.90
20081;DHT22;10200;49.232;9.222;2022-12-07T17:30:07;5.40;99.90
20081;DHT22;10200;49.232;9.222;2022-12-07T17:32:33;5.50;99.90
20081;DHT22;10200;49.232;9.222;2022-12-07T17:34:59;5.50;99.90
20081;DHT22;10200;49.232;9.222;2022-12-07T17:37:25;5.50;99.90
20081;DHT22;10200;49.232;9.222;2022-12-07T17:39:52;5.50;99.90
20081;DHT22;10200;49.232;9.222;2022-12-07T17:42:17;5.50;99.90
20081;DHT22;10200;49.232;9.222;2022-12-07T17:45:02;5.40;99.90
20081;DHT22;10200;49.232;9.222;2022-12-07T17:47:28;5.40;99.90
20081;DHT22;10200;49.232;9.222;2022-12-07T17:49:54;5.40;99.90
20081;DHT22;10200;49.232;9.222;2022-12-07T17:52:19;5.40;99.90
20081;DHT22;10200;49.232;9.222;2022-12-07T17:55:04;5.40;99.90
20081;DHT22;10200;49.232;9.222;2022-12-07T17:57:30;5.40;99.90
20081;DHT22;10200;49.232;9.222;2022-12-07T17:59:55;5.50;99.90
20081;DHT22;10200;49.232;9.222;2022-12-07T18:02:21;5.50;99.90